createdAt,value
2023-03-03T00:02:25.892Z,87.53
2023-03-03T00:05:29.611Z,87.29
2023-03-03T00:08:33.511Z,87.24
2023-03-03T00:11:38.505Z,87.21
2023-03-03T00:14:42.340Z,89.05
2023-03-03T00:17:46.158Z,89.38
2023-03-03T00:20:51.466Z,89.12
2023-03-03T00:23:55.603Z,89.47
2023-03-03T00:27:10.660Z,88.28
2023-03-03T00:30:21.496Z,88.82
2023-03-03T00:33:30.063Z,87.64
2023-03-03T00:36:38.569Z,86.58
2023-03-03T00:39:42.217Z,86.77
2023-03-03T00:42:51.242Z,87.13
2023-03-03T00:45:56.711Z,86.42
2023-03-03T00:49:00.748Z,86.30
2023-03-03T00:52:04.411Z,85.93
2023-03-03T00:55:09.832Z,85.75
2023-03-03T00:58:15.506Z,85.67
2023-03-03T01:01:23.160Z,85.97
2023-03-03T01:04:29.708Z,85.34
2023-03-03T01:07:33.332Z,85.24
2023-03-03T01:10:40.817Z,85.11
2023-03-03T01:13:49.615Z,85.14
2023-03-03T01:16:53.371Z,84.65
2023-03-03T01:19:56.970Z,85.67
2023-03-03T01:23:00.647Z,85.44
2023-03-03T01:26:05.372Z,85.69
2023-03-03T01:29:11.235Z,85.72
2023-03-03T01:32:14.851Z,84.64
2023-03-03T01:35:19.418Z,84.44
2023-03-03T01:38:23.293Z,84.29
2023-03-03T01:41:30.469Z,84.41
2023-03-03T01:44:35.867Z,83.94
2023-03-03T01:47:39.476Z,84.54
2023-03-03T01:50:47.354Z,84.17
2023-03-03T01:53:53.624Z,84.57
2023-03-03T01:57:00.904Z,85.28
2023-03-03T02:00:08.318Z,85.18
2023-03-03T02:03:18.172Z,85.26
2023-03-03T02:06:25.635Z,84.98
2023-03-03T02:09:39.965Z,85.36
2023-03-03T02:12:46.585Z,84.85
2023-03-03T02:15:51.852Z,85.58
2023-03-03T02:18:55.860Z,84.91
2023-03-03T02:22:02.476Z,84.00
2023-03-03T02:25:12.017Z,85.24
2023-03-03T02:28:17.492Z,85.76
2023-03-03T02:31:24.114Z,85.78
2023-03-03T02:34:28.012Z,86.72
2023-03-03T02:37:31.684Z,86.96
2023-03-03T02:40:39.406Z,88.11
2023-03-03T02:43:53.645Z,88.86
2023-03-03T02:46:58.789Z,87.92
2023-03-03T02:50:02.355Z,88.18
2023-03-03T02:53:06.526Z,87.68
2023-03-03T02:56:10.351Z,88.42
2023-03-03T02:59:16.052Z,88.18
2023-03-03T03:02:23.797Z,87.77
2023-03-03T03:05:27.505Z,87.51
2023-03-03T03:08:31.636Z,89.69
2023-03-03T03:11:36.588Z,90.38
2023-03-03T03:14:42.213Z,89.55
2023-03-03T03:17:45.903Z,89.71
2023-03-03T03:20:50.962Z,88.68
2023-03-03T03:23:54.599Z,88.73
2023-03-03T03:26:59.126Z,88.28
2023-03-03T03:30:06.536Z,88.96
2023-03-03T03:33:10.379Z,89.07
2023-03-03T03:36:14.422Z,88.70
2023-03-03T03:39:18.823Z,88.20
2023-03-03T03:42:24.358Z,87.96
2023-03-03T03:45:30.162Z,87.75
2023-03-03T03:48:34.228Z,88.66
2023-03-03T03:51:41.599Z,87.96
2023-03-03T03:54:48.489Z,87.93
2023-03-03T03:57:53.340Z,89.41
2023-03-03T04:01:04.433Z,88.85
2023-03-03T04:04:09.207Z,89.89
2023-03-03T04:07:13.056Z,89.57
2023-03-03T04:10:18.073Z,88.42
2023-03-03T04:13:23.508Z,88.98
2023-03-03T04:16:28.654Z,89.18
2023-03-03T04:19:32.865Z,90.35
2023-03-03T04:22:37.258Z,90.02
2023-03-03T04:25:41.592Z,90.07
2023-03-03T04:28:50.673Z,89.75
2023-03-03T04:31:56.748Z,89.76
2023-03-03T04:35:07.769Z,89.52
2023-03-03T04:38:14.031Z,89.44
2023-03-03T04:41:18.741Z,89.44
2023-03-03T04:44:22.721Z,89.83
2023-03-03T04:47:27.847Z,89.70
2023-03-03T04:50:31.733Z,89.79
2023-03-03T04:53:36.812Z,89.24
2023-03-03T04:56:40.523Z,88.72
2023-03-03T04:59:45.061Z,88.58
2023-03-03T05:02:50.707Z,88.44
2023-03-03T05:05:54.661Z,88.61
2023-03-03T05:08:58.283Z,89.03
2023-03-03T05:12:02.010Z,89.25
2023-03-03T05:15:07.142Z,88.53
2023-03-03T05:18:12.561Z,88.77
2023-03-03T05:21:16.105Z,87.91
2023-03-03T05:24:19.601Z,87.85
2023-03-03T05:27:23.214Z,88.49
2023-03-03T05:30:26.838Z,88.23
2023-03-03T05:33:31.989Z,88.82
2023-03-03T05:36:35.537Z,88.37
2023-03-03T05:39:39.134Z,87.61
2023-03-03T05:42:42.733Z,87.46
2023-03-03T05:45:46.332Z,87.50
2023-03-03T05:48:51.397Z,87.52
2023-03-03T05:51:54.940Z,86.83
2023-03-03T05:54:58.725Z,86.48
2023-03-03T05:58:02.308Z,85.38
2023-03-03T06:01:06.233Z,85.74
2023-03-03T06:04:11.411Z,85.90
2023-03-03T06:07:15.156Z,84.87
2023-03-03T06:10:19.072Z,84.58
2023-03-03T06:13:27.383Z,83.88
2023-03-03T06:16:31.110Z,84.55
2023-03-03T06:19:36.284Z,83.62
2023-03-03T06:22:39.974Z,82.77
2023-03-03T06:25:44.800Z,82.44
2023-03-03T06:28:50.395Z,82.10
2023-03-03T06:31:54.454Z,82.05
2023-03-03T06:34:59.827Z,82.32
2023-03-03T06:38:03.899Z,82.08
2023-03-03T06:41:08.722Z,81.64
2023-03-03T06:44:13.296Z,82.68
2023-03-03T06:47:17.233Z,82.10
2023-03-03T06:50:23.038Z,81.72
2023-03-03T06:53:28.075Z,82.09
2023-03-03T06:56:33.755Z,82.20
2023-03-03T06:59:37.460Z,81.87
2023-03-03T07:02:41.800Z,81.00
2023-03-03T07:05:47.393Z,80.60
2023-03-03T07:08:52.114Z,81.23
2023-03-03T07:12:02.473Z,80.86
2023-03-03T07:15:16.876Z,79.98
2023-03-03T07:18:38.979Z,79.24
2023-03-03T07:21:44.506Z,77.99
2023-03-03T07:24:52.767Z,79.48
2023-03-03T07:28:00.162Z,79.50
2023-03-03T07:31:16.795Z,79.29
2023-03-03T07:34:23.715Z,79.17
2023-03-03T07:37:36.919Z,78.91
2023-03-03T07:40:43.668Z,79.37
2023-03-03T07:43:55.304Z,79.43
2023-03-03T07:47:00.570Z,79.15
2023-03-03T07:50:17.896Z,79.75
2023-03-03T07:53:29.477Z,79.17
2023-03-03T07:56:36.762Z,78.71
2023-03-03T07:59:47.758Z,78.27
2023-03-03T08:02:57.386Z,80.32
2023-03-03T08:06:09.936Z,79.97
2023-03-03T08:09:51.345Z,79.38
2023-03-03T08:12:55.840Z,79.70
2023-03-03T08:16:03.617Z,79.61
2023-03-03T08:19:08.514Z,79.53
2023-03-03T08:22:17.818Z,78.68
2023-03-03T08:25:23.152Z,78.73
2023-03-03T08:28:27.375Z,78.56
2023-03-03T08:31:41.216Z,78.95
2023-03-03T08:34:46.067Z,78.59
2023-03-03T08:37:49.775Z,78.15
2023-03-03T08:40:55.025Z,78.51
2023-03-03T08:43:58.804Z,77.47
2023-03-03T08:47:02.692Z,78.42
2023-03-03T08:50:07.020Z,79.31
2023-03-03T08:53:11.485Z,80.54
2023-03-03T08:56:16.861Z,80.35
2023-03-03T08:59:20.671Z,80.07
2023-03-03T09:02:24.497Z,79.18
2023-03-03T09:05:29.147Z,79.59
2023-03-03T09:08:32.940Z,78.15
2023-03-03T09:11:38.228Z,79.66
2023-03-03T09:14:41.921Z,79.70
2023-03-03T09:17:45.890Z,78.64
2023-03-03T09:20:50.864Z,79.56
2023-03-03T09:23:56.890Z,80.04
2023-03-03T09:27:03.192Z,79.16
2023-03-03T09:30:30.489Z,78.06
2023-03-03T09:33:44.101Z,76.75
2023-03-03T09:36:48.246Z,78.14
2023-03-03T09:39:53.765Z,78.53
2023-03-03T09:43:06.292Z,78.71
2023-03-03T09:46:19.683Z,81.33
2023-03-03T09:49:32.856Z,81.08
2023-03-03T09:52:47.954Z,81.23
2023-03-03T09:56:00.493Z,81.56
2023-03-03T09:59:22.914Z,80.29
2023-03-03T10:02:37.440Z,79.44
2023-03-03T10:05:49.773Z,80.64
2023-03-03T10:09:17.822Z,79.75
2023-03-03T10:12:28.746Z,80.12
2023-03-03T10:15:48.668Z,79.78
2023-03-03T10:19:00.115Z,78.95
2023-03-03T10:22:16.432Z,79.02
2023-03-03T10:25:30.735Z,78.92
2023-03-03T10:28:57.348Z,79.35
2023-03-03T10:32:26.771Z,79.40
2023-03-03T10:36:07.017Z,81.57
2023-03-03T10:39:27.528Z,80.20
2023-03-03T10:42:48.691Z,78.57
2023-03-03T10:46:06.730Z,78.97
2023-03-03T10:49:33.067Z,78.23
2023-03-03T10:52:44.029Z,78.74
2023-03-03T10:55:57.765Z,78.12
2023-03-03T10:59:15.042Z,77.81
2023-03-03T11:02:27.174Z,78.25
2023-03-03T11:05:38.387Z,78.33
2023-03-03T11:08:47.732Z,78.03
2023-03-03T11:11:58.581Z,78.32
2023-03-03T11:15:18.797Z,78.01
2023-03-03T11:18:37.067Z,77.95
2023-03-03T11:21:48.980Z,77.72
2023-03-03T11:25:03.915Z,76.60
2023-03-03T11:28:24.463Z,76.50
2023-03-03T11:31:33.349Z,76.92
2023-03-03T11:34:49.735Z,75.04
2023-03-03T11:38:04.722Z,74.08
2023-03-03T11:41:20.788Z,74.19
2023-03-03T11:44:30.893Z,74.74
2023-03-03T11:47:40.976Z,75.19
2023-03-03T11:50:54.081Z,76.48
2023-03-03T11:54:05.863Z,75.27
2023-03-03T11:57:20.879Z,75.26
2023-03-03T12:00:32.977Z,74.31
2023-03-03T12:03:44.778Z,73.90
2023-03-03T12:07:09.736Z,72.69
2023-03-03T12:10:34.127Z,73.98
2023-03-03T12:13:51.391Z,74.17
2023-03-03T12:16:58.795Z,75.00
2023-03-03T12:20:12.591Z,74.66
2023-03-03T12:23:38.386Z,74.47
2023-03-03T12:26:54.132Z,74.07
2023-03-03T12:30:13.470Z,74.26
2023-03-03T12:33:29.228Z,74.30
2023-03-03T12:36:49.043Z,73.81
2023-03-03T12:40:03.805Z,73.87
2023-03-03T12:43:33.211Z,73.06
2023-03-03T12:46:48.263Z,73.35
2023-03-03T12:50:11.128Z,73.82
2023-03-03T12:53:30.045Z,74.76
2023-03-03T12:56:42.352Z,74.23
2023-03-03T13:00:02.391Z,73.52
2023-03-03T13:03:15.367Z,73.49
2023-03-03T13:06:29.019Z,73.85
2023-03-03T13:09:44.157Z,74.53
2023-03-03T13:12:55.902Z,74.48
2023-03-03T13:16:06.822Z,73.88
2023-03-03T13:19:17.970Z,73.76
2023-03-03T13:22:35.452Z,73.56
2023-03-03T13:25:54.828Z,72.65
2023-03-03T13:29:11.052Z,72.80
2023-03-03T13:32:21.199Z,72.71
2023-03-03T13:35:35.016Z,73.21
2023-03-03T13:38:42.953Z,75.89
2023-03-03T13:41:50.384Z,75.42
2023-03-03T13:44:56.552Z,74.34
2023-03-03T13:48:11.530Z,74.76
2023-03-03T13:51:25.051Z,74.16
2023-03-03T13:54:46.473Z,74.02
2023-03-03T13:58:01.705Z,74.07
2023-03-03T14:01:15.222Z,75.70
2023-03-03T14:04:33.590Z,76.21
2023-03-03T14:07:42.736Z,76.35
2023-03-03T14:11:05.139Z,76.29
2023-03-03T14:14:17.266Z,75.29
2023-03-03T14:17:31.235Z,74.39
2023-03-03T14:20:40.042Z,74.91
2023-03-03T14:23:57.462Z,74.48
2023-03-03T14:27:02.441Z,74.84
2023-03-03T14:30:32.353Z,73.73
2023-03-03T14:33:36.453Z,73.28
2023-03-03T14:36:44.224Z,72.01
2023-03-03T14:39:52.125Z,71.89
2023-03-03T14:42:57.434Z,71.27
2023-03-03T14:46:30.565Z,71.67
2023-03-03T14:49:36.789Z,71.00
2023-03-03T14:52:42.302Z,70.81
2023-03-03T14:55:48.279Z,70.23
2023-03-03T14:58:53.012Z,70.40
2023-03-03T15:02:10.438Z,70.36
2023-03-03T15:05:24.212Z,70.40
2023-03-03T15:08:34.491Z,70.46
2023-03-03T15:11:38.436Z,70.03
2023-03-03T15:14:47.276Z,69.83
2023-03-03T15:18:00.784Z,69.46
2023-03-03T15:21:08.505Z,70.08
2023-03-03T15:24:21.590Z,70.61
2023-03-03T15:27:31.523Z,70.25
2023-03-03T15:30:41.236Z,70.05
2023-03-03T15:33:54.629Z,70.14
2023-03-03T15:37:06.961Z,70.23
2023-03-03T15:40:22.803Z,69.72
2023-03-03T15:43:35.481Z,70.11
2023-03-03T15:46:54.314Z,70.57
2023-03-03T15:50:22.986Z,70.64
2023-03-03T15:53:44.083Z,70.50
2023-03-03T15:56:53.033Z,71.07
2023-03-03T16:00:24.983Z,71.58
2023-03-03T16:03:35.379Z,71.28
2023-03-03T16:06:51.757Z,71.37
2023-03-03T16:10:05.209Z,71.26
2023-03-03T16:13:24.375Z,70.41
2023-03-03T16:16:38.383Z,70.54
2023-03-03T16:19:50.865Z,70.81
2023-03-03T16:23:15.678Z,71.21
2023-03-03T16:26:34.438Z,71.65
2023-03-03T16:29:49.822Z,71.79
2023-03-03T16:32:58.331Z,71.28
2023-03-03T16:36:08.724Z,71.59
2023-03-03T16:39:16.905Z,71.89
2023-03-03T16:42:27.738Z,71.85
2023-03-03T16:45:37.050Z,72.41
2023-03-03T16:48:48.744Z,73.76
2023-03-03T16:52:02.529Z,74.20
2023-03-03T16:55:13.668Z,74.03
2023-03-03T16:58:31.336Z,74.54
2023-03-03T17:01:51.191Z,74.37
2023-03-03T17:05:03.378Z,75.12
2023-03-03T17:08:20.157Z,75.00
2023-03-03T17:11:33.391Z,75.26
2023-03-03T17:14:54.409Z,75.55
2023-03-03T17:18:10.726Z,76.54
2023-03-03T17:21:26.628Z,77.25
2023-03-03T17:24:41.154Z,77.64
2023-03-03T17:28:06.471Z,77.12
2023-03-03T17:31:18.546Z,77.00
2023-03-03T17:34:42.250Z,77.58
2023-03-03T17:37:52.525Z,76.80
2023-03-03T17:41:05.010Z,77.51
2023-03-03T17:44:17.864Z,76.91
2023-03-03T17:47:39.092Z,77.08
2023-03-03T17:51:21.741Z,77.62
2023-03-03T17:54:40.430Z,77.96
2023-03-03T17:58:00.650Z,78.09
2023-03-03T18:01:17.061Z,77.66
2023-03-03T18:04:43.709Z,78.49
2023-03-03T18:08:00.033Z,78.79
2023-03-03T18:11:34.624Z,81.42
2023-03-03T18:14:59.652Z,80.59
2023-03-03T18:18:06.811Z,80.46
2023-03-03T18:21:16.397Z,80.19
2023-03-03T18:24:37.866Z,79.76
2023-03-03T18:27:42.846Z,80.56
2023-03-03T18:30:59.267Z,80.13
2023-03-03T18:34:09.780Z,80.43
2023-03-03T18:37:45.292Z,80.75
2023-03-03T18:40:55.201Z,80.00
2023-03-03T18:44:02.321Z,80.86
2023-03-03T18:47:06.360Z,80.21
2023-03-03T18:50:34.129Z,80.55
2023-03-03T18:53:38.337Z,80.66
2023-03-03T18:56:51.175Z,80.70
2023-03-03T18:59:58.561Z,80.70
2023-03-03T19:03:02.543Z,80.84
2023-03-03T19:06:08.929Z,80.53
2023-03-03T19:09:19.343Z,81.16
2023-03-03T19:12:45.674Z,80.58
2023-03-03T19:16:01.453Z,80.52
2023-03-03T19:19:16.492Z,81.99
2023-03-03T19:22:26.588Z,81.75
2023-03-03T19:25:32.080Z,80.59
2023-03-03T19:28:44.626Z,81.66
2023-03-03T19:31:55.795Z,81.49
2023-03-03T19:35:10.347Z,81.45
2023-03-03T19:38:25.846Z,81.60
2023-03-03T19:41:46.180Z,81.28
2023-03-03T19:45:05.731Z,80.87
2023-03-03T19:48:22.969Z,81.20
2023-03-03T19:51:33.077Z,80.23
2023-03-03T19:54:58.795Z,80.90
2023-03-03T19:58:18.603Z,80.59
2023-03-03T20:01:30.317Z,80.64
2023-03-03T20:04:54.329Z,81.33
2023-03-03T20:08:04.028Z,81.40
2023-03-03T20:11:15.769Z,81.01
2023-03-03T20:14:37.095Z,80.71
2023-03-03T20:17:52.646Z,81.29
2023-03-03T20:21:09.587Z,82.55
2023-03-03T20:24:30.245Z,82.89
2023-03-03T20:27:42.003Z,82.59
2023-03-03T20:31:01.118Z,82.20
2023-03-03T20:34:15.639Z,83.50
2023-03-03T20:37:27.105Z,82.18
2023-03-03T20:40:37.417Z,81.65
2023-03-03T20:43:56.908Z,82.29
2023-03-03T20:47:11.607Z,81.49
2023-03-03T20:50:28.958Z,82.26
2023-03-03T20:53:45.307Z,81.41
2023-03-03T20:56:56.898Z,81.53
2023-03-03T21:00:05.969Z,81.55
2023-03-03T21:03:20.859Z,81.50
2023-03-03T21:06:41.073Z,81.73
2023-03-03T21:09:44.961Z,81.55
2023-03-03T21:12:48.689Z,81.62
2023-03-03T21:15:56.736Z,82.40
2023-03-03T21:19:01.663Z,82.79
2023-03-03T21:22:07.139Z,82.26
2023-03-03T21:25:14.361Z,83.47
2023-03-03T21:28:21.530Z,82.99
2023-03-03T21:31:25.484Z,82.82
2023-03-03T21:34:31.871Z,82.08
2023-03-03T21:37:49.437Z,82.53
2023-03-03T21:41:01.581Z,82.21
2023-03-03T21:44:46.764Z,82.86
2023-03-03T21:47:51.179Z,82.94
2023-03-03T21:50:54.998Z,82.76
2023-03-03T21:54:00.323Z,82.51
2023-03-03T21:57:04.137Z,82.68
2023-03-03T22:00:10.419Z,82.91
2023-03-03T22:03:15.663Z,84.34
2023-03-03T22:06:19.866Z,83.64
2023-03-03T22:09:25.219Z,83.24
2023-03-03T22:12:28.940Z,82.79
2023-03-03T22:15:34.166Z,82.68
2023-03-03T22:18:38.009Z,83.18
2023-03-03T22:21:41.967Z,82.53
2023-03-03T22:24:47.413Z,82.57
2023-03-03T22:27:51.228Z,82.07
2023-03-03T22:30:55.128Z,83.00
2023-03-03T22:33:59.088Z,82.19
2023-03-03T22:37:02.906Z,82.06
2023-03-03T22:40:09.321Z,82.52
2023-03-03T22:43:14.786Z,84.22
2023-03-03T22:46:18.703Z,83.56
2023-03-03T22:49:22.525Z,82.78
2023-03-03T22:52:26.736Z,81.90
2023-03-03T22:55:32.300Z,81.70
2023-03-03T22:58:36.003Z,83.46
2023-03-03T23:01:39.805Z,83.15
2023-03-03T23:04:43.544Z,82.40
2023-03-03T23:07:47.499Z,82.08
2023-03-03T23:10:52.604Z,81.75
2023-03-03T23:13:56.474Z,82.18
2023-03-03T23:17:00.200Z,82.19
2023-03-03T23:20:03.900Z,81.96
2023-03-03T23:23:07.591Z,81.53
2023-03-03T23:26:12.812Z,82.28
2023-03-03T23:29:16.493Z,81.88
2023-03-03T23:32:21.765Z,82.06
2023-03-03T23:35:25.520Z,82.17
2023-03-03T23:38:29.281Z,81.83
2023-03-03T23:41:34.596Z,82.21
2023-03-03T23:44:38.938Z,84.80
2023-03-03T23:47:43.348Z,85.04
2023-03-03T23:50:46.910Z,86.08
2023-03-03T23:53:50.599Z,85.78
2023-03-03T23:56:55.979Z,86.87
2023-03-03T23:59:59.557Z,86.90
